Station Historical Data
Daily Summary for May 31, 2012 Units:  Both    English   Metric
« Previous Day
Next Day »
Daily Weekly Monthly Yearly Custom
  High: Low: Average:
Temperature: 85.8 °F /  29.9 °C 65.0 °F /  18.3 °C 73.8 °F /  23.2 °C
Dew Point: 69.3 °F /  20.7 °C 61.2 °F /  16.2 °C 64.7 °F /  18.2 °C
Humidity: 92% 50% 75%
Wind Speed: 15.0mph /  24.1km/h - 4.3mph /  6.9km/h
Wind Gust: 20.0mph /  32.2km/h - -
Wind- - SSE
Pressure: 29.83 in /  1010 hPa 29.65 in /  1003.9 hPa -
Precipitation: 0.00 in /  0 mm    
Historical Graphs
 
 
Tabular Data for May 31, 2012
Time Temperature Dew Point Pressure Wind Wind Speed Wind Gust Humidity Rainfall Rate (Hourly) Conditions
00:00 71.8 °F /  22.1 °C 64.9 °F /  18.3 °C 29.79in /  1008.7hPa NE 3.0mph /  4.8km/h 4.0mph /  6.4km/h 79% 0.00in /  0mm
00:01 71.8 °F /  22.1 °C 64.9 °F /  18.3 °C 29.79in /  1008.7hPa NNE 2.0mph /  3.2km/h 4.0mph /  6.4km/h 79% 0.00in /  0mm
00:06 71.7 °F /  22.1 °C 64.8 °F /  18.2 °C 29.80in /  1009hPa NNE 4.0mph /  6.4km/h 4.0mph /  6.4km/h 79% 0.00in /  0mm
00:11 71.6 °F /  22 °C 64.8 °F /  18.2 °C 29.80in /  1009hPa NNE 2.0mph /  3.2km/h 4.0mph /  6.4km/h 79% 0.00in /  0mm
00:12 71.6 °F /  22 °C 65.1 °F /  18.4 °C 29.80in /  1009hPa NNE 2.0mph /  3.2km/h 3.0mph /  4.8km/h 80% 0.00in /  0mm
00:17 71.3 °F /  21.8 °C 64.8 °F /  18.2 °C 29.80in /  1009hPa NE 2.0mph /  3.2km/h 2.0mph /  3.2km/h 80% 0.00in /  0mm
00:22 71.1 °F /  21.7 °C 65.0 °F /  18.3 °C 29.80in /  1009hPa NE 2.0mph /  3.2km/h 3.0mph /  4.8km/h 81% 0.00in /  0mm
00:27 71.0 °F /  21.7 °C 64.9 °F /  18.3 °C 29.81in /  1009.4hPa NNE 1.0mph /  1.6km/h 4.0mph /  6.4km/h 81% 0.00in /  0mm
00:32 71.1 °F /  21.7 °C 65.0 °F /  18.3 °C 29.81in /  1009.4hPa Calm   2.0mph /  3.2km/h 81% 0.00in /  0mm
00:37 70.5 °F /  21.4 °C 64.8 °F /  18.2 °C 29.81in /  1009.4hPa SSW 2.0mph /  3.2km/h 3.0mph /  4.8km/h 82% 0.00in /  0mm
00:42 69.7 °F /  20.9 °C 64.7 °F /  18.2 °C 29.81in /  1009.4hPa South 2.0mph /  3.2km/h 4.0mph /  6.4km/h 84% 0.00in /  0mm
00:47 69.5 °F /  20.8 °C 64.8 °F /  18.2 °C 29.81in /  1009.4hPa NNE 2.0mph /  3.2km/h 2.0mph /  3.2km/h 85% 0.00in /  0mm
00:52 69.4 °F /  20.8 °C 64.7 °F /  18.2 °C 29.81in /  1009.4hPa NNE 1.0mph /  1.6km/h 3.0mph /  4.8km/h 85% 0.00in /  0mm
00:57 69.0 °F /  20.6 °C 64.6 °F /  18.1 °C 29.81in /  1009.4hPa Calm   1.0mph /  1.6km/h 86% 0.00in /  0mm
01:02 68.8 °F /  20.4 °C 64.8 °F /  18.2 °C 29.81in /  1009.4hPa SSE 3.0mph /  4.8km/h 3.0mph /  4.8km/h 87% 0.00in /  0mm
01:07 68.4 °F /  20.2 °C 64.4 °F /  18 °C 29.81in /  1009.4hPa SE 1.0mph /  1.6km/h 3.0mph /  4.8km/h 87% 0.00in /  0mm
01:12 68.3 °F /  20.2 °C 64.6 °F /  18.1 °C 29.80in /  1009hPa Calm   1.0mph /  1.6km/h 88% 0.00in /  0mm
01:17 68.2 °F /  20.1 °C 64.8 °F /  18.2 °C 29.80in /  1009hPa SW 1.0mph /  1.6km/h 2.0mph /  3.2km/h 89% 0.00in /  0mm
01:22 68.0 °F /  20 °C 64.3 °F /  17.9 °C 29.81in /  1009.4hPa West 2.0mph /  3.2km/h 2.0mph /  3.2km/h 88% 0.00in /  0mm
01:27 67.8 °F /  19.9 °C 64.8 °F /  18.2 °C 29.81in /  1009.4hPa West 2.0mph /  3.2km/h 4.0mph /  6.4km/h 90% 0.00in /  0mm
01:32 67.9 °F /  19.9 °C 64.5 °F /  18.1 °C 29.82in /  1009.7hPa SW 2.0mph /  3.2km/h 5.0mph /  8km/h 89% 0.00in /  0mm
01:37 67.9 °F /  19.9 °C 64.5 °F /  18.1 °C 29.81in /  1009.4hPa Calm   2.0mph /  3.2km/h 89% 0.00in /  0mm
01:42 67.6 °F /  19.8 °C 64.2 °F /  17.9 °C 29.81in /  1009.4hPa Calm     89% 0.00in /  0mm
01:47 67.3 °F /  19.6 °C 64.0 °F /  17.8 °C 29.81in /  1009.4hPa Calm   1.0mph /  1.6km/h 89% 0.00in /  0mm
01:53 67.5 °F /  19.7 °C 64.2 °F /  17.9 °C 29.81in /  1009.4hPa SW 1.0mph /  1.6km/h 1.0mph /  1.6km/h 89% 0.00in /  0mm
01:58 67.4 °F /  19.7 °C 64.1 °F /  17.8 °C 29.82in /  1009.7hPa Calm   1.0mph /  1.6km/h 89% 0.00in /  0mm
02:03 67.5 °F /  19.7 °C 64.5 °F /  18.1 °C 29.81in /  1009.4hPa WSW 3.0mph /  4.8km/h 3.0mph /  4.8km/h 90% 0.00in /  0mm
02:08 67.8 °F /  19.9 °C 64.4 °F /  18 °C 29.81in /  1009.4hPa NE 3.0mph /  4.8km/h 3.0mph /  4.8km/h 89% 0.00in /  0mm
02:13 67.6 °F /  19.8 °C 64.2 °F /  17.9 °C 29.81in /  1009.4hPa Calm   2.0mph /  3.2km/h 89% 0.00in /  0mm
02:18 67.7 °F /  19.8 °C 64.3 °F /  17.9 °C 29.81in /  1009.4hPa East 1.0mph /  1.6km/h 1.0mph /  1.6km/h 89% 0.00in /  0mm
02:23 67.5 °F /  19.7 °C 64.2 °F /  17.9 °C 29.82in /  1009.7hPa Calm     89% 0.00in /  0mm
02:28 67.1 °F /  19.5 °C 63.8 °F /  17.7 °C 29.82in /  1009.7hPa Calm     89% 0.00in /  0mm
02:33 66.8 °F /  19.3 °C 63.8 °F /  17.7 °C 29.82in /  1009.7hPa East 1.0mph /  1.6km/h 1.0mph /  1.6km/h 90% 0.00in /  0mm
02:38 66.8 °F /  19.3 °C 64.1 °F /  17.8 °C 29.83in /  1010hPa North 2.0mph /  3.2km/h 2.0mph /  3.2km/h 91% 0.00in /  0mm
02:43 66.5 °F /  19.2 °C 63.8 °F /  17.7 °C 29.82in /  1009.7hPa Calm   2.0mph /  3.2km/h 91% 0.00in /  0mm
02:48 66.6 °F /  19.2 °C 63.9 °F /  17.7 °C 29.82in /  1009.7hPa North 1.0mph /  1.6km/h 1.0mph /  1.6km/h 91% 0.00in /  0mm
02:53 66.8 °F /  19.3 °C 64.1 °F /  17.8 °C 29.82in /  1009.7hPa North 1.0mph /  1.6km/h 1.0mph /  1.6km/h 91% 0.00in /  0mm
02:58 67.1 °F /  19.5 °C 64.4 °F /  18 °C 29.82in /  1009.7hPa Calm     91% 0.00in /  0mm
03:03 67.3 °F /  19.6 °C 64.3 °F /  17.9 °C 29.82in /  1009.7hPa Calm     90% 0.00in /  0mm
03:08 67.3 °F /  19.6 °C 64.3 °F /  17.9 °C 29.81in /  1009.4hPa Calm   2.0mph /  3.2km/h 90% 0.00in /  0mm
03:13 67.1 °F /  19.5 °C 64.4 °F /  18 °C 29.81in /  1009.4hPa Calm     91% 0.00in /  0mm
03:18 67.0 °F /  19.4 °C 64.3 °F /  17.9 °C 29.81in /  1009.4hPa Calm     91% 0.00in /  0mm
03:23 66.9 °F /  19.4 °C 64.2 °F /  17.9 °C 29.81in /  1009.4hPa Calm     91% 0.00in /  0mm
03:28 66.9 °F /  19.4 °C 64.2 °F /  17.9 °C 29.80in /  1009hPa Calm     91% 0.00in /  0mm
03:33 66.9 °F /  19.4 °C 64.2 °F /  17.9 °C 29.80in /  1009hPa Calm   1.0mph /  1.6km/h 91% 0.00in /  0mm
03:38 67.0 °F /  19.4 °C 64.3 °F /  17.9 °C 29.80in /  1009hPa Calm     91% 0.00in /  0mm
03:43 67.4 °F /  19.7 °C 65.0 °F /  18.3 °C 29.79in /  1008.7hPa East 2.0mph /  3.2km/h 2.0mph /  3.2km/h 92% 0.00in /  0mm
03:48 67.7 °F /  19.8 °C 65.0 °F /  18.3 °C 29.79in /  1008.7hPa NNE 4.0mph /  6.4km/h 4.0mph /  6.4km/h 91% 0.00in /  0mm
03:53 67.7 °F /  19.8 °C 64.7 °F /  18.2 °C 29.79in /  1008.7hPa NNE 3.0mph /  4.8km/h 4.0mph /  6.4km/h 90% 0.00in /  0mm
03:58 67.8 °F /  19.9 °C 64.4 °F /  18 °C 29.78in /  1008.4hPa Calm   3.0mph /  4.8km/h 89% 0.00in /  0mm
04:04 67.7 °F /  19.8 °C 64.7 °F /  18.2 °C 29.79in /  1008.7hPa NNW 1.0mph /  1.6km/h 2.0mph /  3.2km/h 90% 0.00in /  0mm
04:09 67.4 °F /  19.7 °C 64.7 °F /  18.2 °C 29.79in /  1008.7hPa Calm   1.0mph /  1.6km/h 91% 0.00in /  0mm
04:14 67.3 °F /  19.6 °C 64.6 °F /  18.1 °C 29.79in /  1008.7hPa NNW 1.0mph /  1.6km/h 1.0mph /  1.6km/h 91% 0.00in /  0mm
04:19 67.3 °F /  19.6 °C 64.6 °F /  18.1 °C 29.79in /  1008.7hPa North 1.0mph /  1.6km/h 1.0mph /  1.6km/h 91% 0.00in /  0mm
04:24 67.3 °F /  19.6 °C 64.6 °F /  18.1 °C 29.79in /  1008.7hPa Calm   1.0mph /  1.6km/h 91% 0.00in /  0mm
04:29 67.3 °F /  19.6 °C 64.3 °F /  17.9 °C 29.79in /  1008.7hPa Calm   1.0mph /  1.6km/h 90% 0.00in /  0mm
04:34 67.2 °F /  19.6 °C 64.5 °F /  18.1 °C 29.78in /  1008.4hPa NNE 1.0mph /  1.6km/h 1.0mph /  1.6km/h 91% 0.00in /  0mm
04:39 67.2 °F /  19.6 °C 64.2 °F /  17.9 °C 29.78in /  1008.4hPa Calm   2.0mph /  3.2km/h 90% 0.00in /  0mm
04:44 67.1 °F /  19.5 °C 64.1 °F /  17.8 °C 29.79in /  1008.7hPa NNE 1.0mph /  1.6km/h 1.0mph /  1.6km/h 90% 0.00in /  0mm
04:49 67.0 °F /  19.4 °C 64.3 °F /  17.9 °C 29.78in /  1008.4hPa North 2.0mph /  3.2km/h 2.0mph /  3.2km/h 91% 0.00in /  0mm
04:54 67.1 °F /  19.5 °C 64.1 °F /  17.8 °C 29.78in /  1008.4hPa Calm   1.0mph /  1.6km/h 90% 0.00in /  0mm
04:59 67.2 °F /  19.6 °C 64.2 °F /  17.9 °C 29.78in /  1008.4hPa Calm     90% 0.00in /  0mm
05:04 67.3 °F /  19.6 °C 64.3 °F /  17.9 °C 29.78in /  1008.4hPa NE 1.0mph /  1.6km/h 2.0mph /  3.2km/h 90% 0.00in /  0mm
05:09 67.5 °F /  19.7 °C 64.2 °F /  17.9 °C 29.78in /  1008.4hPa Calm   1.0mph /  1.6km/h 89% 0.00in /  0mm
05:14 67.4 °F /  19.7 °C 64.1 °F /  17.8 °C 29.78in /  1008.4hPa NNE 1.0mph /  1.6km/h 1.0mph /  1.6km/h 89% 0.00in /  0mm
05:19 67.0 °F /  19.4 °C 64.0 °F /  17.8 °C 29.78in /  1008.4hPa Calm     90% 0.00in /  0mm
05:24 66.7 °F /  19.3 °C 63.7 °F /  17.6 °C 29.77in /  1008hPa Calm     90% 0.00in /  0mm
05:29 66.6 °F /  19.2 °C 63.9 °F /  17.7 °C 29.77in /  1008hPa Calm     91% 0.00in /  0mm
05:34 66.4 °F /  19.1 °C 63.7 °F /  17.6 °C 29.77in /  1008hPa Calm     91% 0.00in /  0mm
05:40 66.2 °F /  19 °C 63.8 °F /  17.7 °C 29.77in /  1008hPa Calm     92% 0.00in /  0mm
05:45 66.0 °F /  18.9 °C 63.6 °F /  17.6 °C 29.77in /  1008hPa Calm   2.0mph /  3.2km/h 92% 0.00in /  0mm
05:50 65.8 °F /  18.8 °C 63.4 °F /  17.4 °C 29.76in /  1007.7hPa NNE 2.0mph /  3.2km/h 3.0mph /  4.8km/h 92% 0.00in /  0mm
05:55 65.5 °F /  18.6 °C 63.1 °F /  17.3 °C 29.77in /  1008hPa Calm   1.0mph /  1.6km/h 92% 0.00in /  0mm
06:00 65.4 °F /  18.6 °C 63.0 °F /  17.2 °C 29.76in /  1007.7hPa NNE 2.0mph /  3.2km/h 3.0mph /  4.8km/h 92% 0.00in /  0mm
06:05 65.4 °F /  18.6 °C 63.0 °F /  17.2 °C 29.76in /  1007.7hPa NNE 2.0mph /  3.2km/h 3.0mph /  4.8km/h 92% 0.00in /  0mm
06:10 65.5 °F /  18.6 °C 63.1 °F /  17.3 °C 29.76in /  1007.7hPa NE 1.0mph /  1.6km/h 3.0mph /  4.8km/h 92% 0.00in /  0mm
06:15 65.5 °F /  18.6 °C 63.1 °F /  17.3 °C 29.76in /  1007.7hPa North 1.0mph /  1.6km/h 2.0mph /  3.2km/h 92% 0.00in /  0mm
06:20 65.5 °F /  18.6 °C 63.1 °F /  17.3 °C 29.77in /  1008hPa Calm   1.0mph /  1.6km/h 92% 0.00in /  0mm
06:25 65.4 °F /  18.6 °C 63.0 °F /  17.2 °C 29.77in /  1008hPa North 1.0mph /  1.6km/h 1.0mph /  1.6km/h 92% 0.00in /  0mm
06:30 65.4 °F /  18.6 °C 63.0 °F /  17.2 °C 29.77in /  1008hPa Calm     92% 0.00in /  0mm
06:35 65.3 °F /  18.5 °C 62.9 °F /  17.2 °C 29.77in /  1008hPa NNW 1.0mph /  1.6km/h 1.0mph /  1.6km/h 92% 0.00in /  0mm
06:40 65.3 °F /  18.5 °C 62.9 °F /  17.2 °C 29.77in /  1008hPa Calm   1.0mph /  1.6km/h 92% 0.00in /  0mm
06:45 65.1 °F /  18.4 °C 62.7 °F /  17.1 °C 29.77in /  1008hPa Calm   1.0mph /  1.6km/h 92% 0.00in /  0mm
06:50 65.0 °F /  18.3 °C 62.6 °F /  17 °C 29.77in /  1008hPa East 1.0mph /  1.6km/h 1.0mph /  1.6km/h 92% 0.00in /  0mm
06:51 65.1 °F /  18.4 °C 62.7 °F /  17.1 °C 29.77in /  1008hPa Calm   1.0mph /  1.6km/h 92% 0.00in /  0mm
06:56 65.2 °F /  18.4 °C 62.8 °F /  17.1 °C 29.78in /  1008.4hPa Calm   1.0mph /  1.6km/h 92% 0.00in /  0mm
07:01 65.5 °F /  18.6 °C 63.1 °F /  17.3 °C 29.78in /  1008.4hPa East 1.0mph /  1.6km/h 5.0mph /  8km/h 92% 0.00in /  0mm
07:06 65.8 °F /  18.8 °C 63.1 °F /  17.3 °C 29.78in /  1008.4hPa ESE 1.0mph /  1.6km/h 2.0mph /  3.2km/h 91% 0.00in /  0mm
07:11 66.1 °F /  18.9 °C 63.4 °F /  17.4 °C 29.78in /  1008.4hPa ESE 2.0mph /  3.2km/h 2.0mph /  3.2km/h 91% 0.00in /  0mm
07:16 66.3 °F /  19.1 °C 63.6 °F /  17.6 °C 29.78in /  1008.4hPa East 3.0mph /  4.8km/h 3.0mph /  4.8km/h 91% 0.00in /  0mm
07:21 66.7 °F /  19.3 °C 64.0 °F /  17.8 °C 29.78in /  1008.4hPa Calm   2.0mph /  3.2km/h 91% 0.00in /  0mm
07:26 67.3 °F /  19.6 °C 64.0 °F /  17.8 °C 29.77in /  1008hPa Calm   3.0mph /  4.8km/h 89% 0.00in /  0mm
07:31 67.9 °F /  19.9 °C 64.2 °F /  17.9 °C 29.77in /  1008hPa ENE 2.0mph /  3.2km/h 3.0mph /  4.8km/h 88% 0.00in /  0mm
07:36 68.0 °F /  20 °C 64.0 °F /  17.8 °C 29.78in /  1008.4hPa East 2.0mph /  3.2km/h 4.0mph /  6.4km/h 87% 0.00in /  0mm
07:41 68.0 °F /  20 °C 64.0 °F /  17.8 °C 29.78in /  1008.4hPa East 2.0mph /  3.2km/h 3.0mph /  4.8km/h 87% 0.00in /  0mm
07:46 68.1 °F /  20.1 °C 64.1 °F /  17.8 °C 29.78in /  1008.4hPa Calm   2.0mph /  3.2km/h 87% 0.00in /  0mm
07:51 68.4 °F /  20.2 °C 64.1 °F /  17.8 °C 29.78in /  1008.4hPa NE 1.0mph /  1.6km/h 3.0mph /  4.8km/h 86% 0.00in /  0mm
07:56 68.9 °F /  20.5 °C 64.6 °F /  18.1 °C 29.78in /  1008.4hPa Calm     86% 0.00in /  0mm
08:01 69.3 °F /  20.7 °C 64.3 °F /  17.9 °C 29.78in /  1008.4hPa NE 2.0mph /  3.2km/h 3.0mph /  4.8km/h 84% 0.00in /  0mm
08:06 69.0 °F /  20.6 °C 64.3 °F /  17.9 °C 29.78in /  1008.4hPa Calm   2.0mph /  3.2km/h 85% 0.00in /  0mm
08:12 68.8 °F /  20.4 °C 64.1 °F /  17.8 °C 29.78in /  1008.4hPa East 2.0mph /  3.2km/h 2.0mph /  3.2km/h 85% 0.00in /  0mm
08:17 68.8 °F /  20.4 °C 64.4 °F /  18 °C 29.77in /  1008hPa Calm   2.0mph /  3.2km/h 86% 0.00in /  0mm
08:22 69.4 °F /  20.8 °C 65.0 °F /  18.3 °C 29.78in /  1008.4hPa East 1.0mph /  1.6km/h 1.0mph /  1.6km/h 86% 0.00in /  0mm
08:27 70.1 °F /  21.2 °C 65.1 °F /  18.4 °C 29.78in /  1008.4hPa East 1.0mph /  1.6km/h 3.0mph /  4.8km/h 84% 0.00in /  0mm
08:32 70.8 °F /  21.6 °C 65.7 °F /  18.7 °C 29.78in /  1008.4hPa North 3.0mph /  4.8km/h 3.0mph /  4.8km/h 84% 0.00in /  0mm
08:37 71.1 °F /  21.7 °C 65.3 °F /  18.5 °C 29.78in /  1008.4hPa ENE 2.0mph /  3.2km/h 3.0mph /  4.8km/h 82% 0.00in /  0mm
08:42 71.4 °F /  21.9 °C 64.9 °F /  18.3 °C 29.77in /  1008hPa ENE 1.0mph /  1.6km/h 4.0mph /  6.4km/h 80% 0.00in /  0mm
08:47 71.4 °F /  21.9 °C 64.9 °F /  18.3 °C 29.77in /  1008hPa ENE 1.0mph /  1.6km/h 2.0mph /  3.2km/h 80% 0.00in /  0mm
08:52 71.0 °F /  21.7 °C 64.5 °F /  18.1 °C 29.78in /  1008.4hPa ENE 1.0mph /  1.6km/h 3.0mph /  4.8km/h 80% 0.00in /  0mm
08:57 70.8 °F /  21.6 °C 64.7 °F /  18.2 °C 29.78in /  1008.4hPa ESE 2.0mph /  3.2km/h 2.0mph /  3.2km/h 81% 0.00in /  0mm
09:02 71.1 °F /  21.7 °C 64.6 °F /  18.1 °C 29.78in /  1008.4hPa ESE 3.0mph /  4.8km/h 3.0mph /  4.8km/h 80% 0.00in /  0mm
09:07 71.1 °F /  21.7 °C 65.3 °F /  18.5 °C 29.78in /  1008.4hPa ESE 3.0mph /  4.8km/h 4.0mph /  6.4km/h 82% 0.00in /  0mm
09:12 71.2 °F /  21.8 °C 65.4 °F /  18.6 °C 29.79in /  1008.7hPa ESE 4.0mph /  6.4km/h 5.0mph /  8km/h 82% 0.00in /  0mm
09:17 71.6 °F /  22 °C 65.5 °F /  18.6 °C 29.79in /  1008.7hPa ESE 5.0mph /  8km/h 9.0mph /  14.5km/h 81% 0.00in /  0mm
09:22 71.8 °F /  22.1 °C 65.3 °F /  18.5 °C 29.79in /  1008.7hPa ESE 4.0mph /  6.4km/h 7.0mph /  11.3km/h 80% 0.00in /  0mm
09:27 72.4 °F /  22.4 °C 65.2 °F /  18.4 °C 29.79in /  1008.7hPa East 5.0mph /  8km/h 7.0mph /  11.3km/h 78% 0.00in /  0mm
09:32 73.0 °F /  22.8 °C 65.7 °F /  18.7 °C 29.79in /  1008.7hPa SE 8.0mph /  12.9km/h 8.0mph /  12.9km/h 78% 0.00in /  0mm
09:37 73.3 °F /  22.9 °C 66.0 °F /  18.9 °C 29.79in /  1008.7hPa ESE 7.0mph /  11.3km/h 10.0mph /  16.1km/h 78% 0.00in /  0mm
09:42 73.3 °F /  22.9 °C 65.7 °F /  18.7 °C 29.79in /  1008.7hPa SE 4.0mph /  6.4km/h 8.0mph /  12.9km/h 77% 0.00in /  0mm
09:47 73.7 °F /  23.2 °C 66.1 °F /  18.9 °C 29.80in /  1009hPa ESE 7.0mph /  11.3km/h 8.0mph /  12.9km/h 77% 0.00in /  0mm
09:52 73.2 °F /  22.9 °C 65.9 °F /  18.8 °C 29.79in /  1008.7hPa SSE 7.0mph /  11.3km/h 7.0mph /  11.3km/h 78% 0.00in /  0mm
09:57 72.9 °F /  22.7 °C 66.4 °F /  19.1 °C 29.79in /  1008.7hPa SSE 5.0mph /  8km/h 6.0mph /  9.7km/h 80% 0.00in /  0mm
10:02 73.6 °F /  23.1 °C 67.1 °F /  19.5 °C 29.79in /  1008.7hPa South 3.0mph /  4.8km/h 6.0mph /  9.7km/h 80% 0.00in /  0mm
10:07 73.9 °F /  23.3 °C 67.0 °F /  19.4 °C 29.79in /  1008.7hPa SSE 4.0mph /  6.4km/h 8.0mph /  12.9km/h 79% 0.00in /  0mm
10:12 74.4 °F /  23.6 °C 67.5 °F /  19.7 °C 29.79in /  1008.7hPa SSE 7.0mph /  11.3km/h 9.0mph /  14.5km/h 79% 0.00in /  0mm
10:17 74.7 °F /  23.7 °C 67.8 °F /  19.9 °C 29.79in /  1008.7hPa SSE 4.0mph /  6.4km/h 8.0mph /  12.9km/h 79% 0.00in /  0mm
10:22 75.0 °F /  23.9 °C 67.7 °F /  19.8 °C 29.79in /  1008.7hPa SSE 4.0mph /  6.4km/h 6.0mph /  9.7km/h 78% 0.00in /  0mm
10:28 75.2 °F /  24 °C 67.9 °F /  19.9 °C 29.79in /  1008.7hPa ESE 3.0mph /  4.8km/h 10.0mph /  16.1km/h 78% 0.00in /  0mm
10:33 75.8 °F /  24.3 °C 68.5 °F /  20.3 °C 29.79in /  1008.7hPa South 6.0mph /  9.7km/h 7.0mph /  11.3km/h 78% 0.00in /  0mm
10:38 76.2 °F /  24.6 °C 68.1 °F /  20.1 °C 29.79in /  1008.7hPa SSE 5.0mph /  8km/h 6.0mph /  9.7km/h 76% 0.00in /  0mm
10:43 76.4 °F /  24.7 °C 67.9 °F /  19.9 °C 29.79in /  1008.7hPa SE 5.0mph /  8km/h 7.0mph /  11.3km/h 75% 0.00in /  0mm
10:48 76.9 °F /  24.9 °C 68.0 °F /  20 °C 29.78in /  1008.4hPa South 4.0mph /  6.4km/h 8.0mph /  12.9km/h 74% 0.00in /  0mm
10:53 77.2 °F /  25.1 °C 68.3 °F /  20.2 °C 29.78in /  1008.4hPa ESE 5.0mph /  8km/h 7.0mph /  11.3km/h 74% 0.00in /  0mm
10:58 77.6 °F /  25.3 °C 68.7 °F /  20.4 °C 29.78in /  1008.4hPa SW 5.0mph /  8km/h 7.0mph /  11.3km/h 74% 0.00in /  0mm
11:03 77.8 °F /  25.4 °C 68.5 °F /  20.3 °C 29.78in /  1008.4hPa SSW 5.0mph /  8km/h 7.0mph /  11.3km/h 73% 0.00in /  0mm
11:08 78.4 °F /  25.8 °C 68.2 °F /  20.1 °C 29.78in /  1008.4hPa SE 3.0mph /  4.8km/h 7.0mph /  11.3km/h 71% 0.00in /  0mm
11:13 79.1 °F /  26.2 °C 68.1 °F /  20.1 °C 29.78in /  1008.4hPa South 2.0mph /  3.2km/h 6.0mph /  9.7km/h 69% 0.00in /  0mm
11:18 79.5 °F /  26.4 °C 69.3 °F /  20.7 °C 29.78in /  1008.4hPa SW 4.0mph /  6.4km/h 6.0mph /  9.7km/h 71% 0.00in /  0mm
11:23 79.8 °F /  26.6 °C 66.1 °F /  18.9 °C 29.78in /  1008.4hPa South 9.0mph /  14.5km/h 11.0mph /  17.7km/h 63% 0.00in /  0mm
11:28 79.9 °F /  26.6 °C 64.3 °F /  17.9 °C 29.78in /  1008.4hPa SSW 8.0mph /  12.9km/h 11.0mph /  17.7km/h 59% 0.00in /  0mm
11:33 80.0 °F /  26.7 °C 65.8 °F /  18.8 °C 29.78in /  1008.4hPa South 6.0mph /  9.7km/h 8.0mph /  12.9km/h 62% 0.00in /  0mm
11:38 80.3 °F /  26.8 °C 65.6 °F /  18.7 °C 29.78in /  1008.4hPa SW 10.0mph /  16.1km/h 12.0mph /  19.3km/h 61% 0.00in /  0mm
11:43 80.5 °F /  26.9 °C 64.9 °F /  18.3 °C 29.78in /  1008.4hPa SSW 5.0mph /  8km/h 15.0mph /  24.1km/h 59% 0.00in /  0mm
11:48 80.6 °F /  27 °C 64.0 °F /  17.8 °C 29.78in /  1008.4hPa South 9.0mph /  14.5km/h 16.0mph /  25.7km/h 57% 0.00in /  0mm
11:53 80.6 °F /  27 °C 65.0 °F /  18.3 °C 29.77in /  1008hPa SSE 9.0mph /  14.5km/h 12.0mph /  19.3km/h 59% 0.00in /  0mm
11:58 80.7 °F /  27.1 °C 64.1 °F /  17.8 °C 29.77in /  1008hPa SSW 9.0mph /  14.5km/h 13.0mph /  20.9km/h 57% 0.00in /  0mm
12:03 80.7 °F /  27.1 °C 65.1 °F /  18.4 °C 29.78in /  1008.4hPa SSW 8.0mph /  12.9km/h 11.0mph /  17.7km/h 59% 0.00in /  0mm
12:08 80.8 °F /  27.1 °C 65.2 °F /  18.4 °C 29.77in /  1008hPa SE 10.0mph /  16.1km/h 14.0mph /  22.5km/h 59% 0.00in /  0mm
12:13 81.0 °F /  27.2 °C 66.3 °F /  19.1 °C 29.78in /  1008.4hPa SE 9.0mph /  14.5km/h 12.0mph /  19.3km/h 61% 0.00in /  0mm
12:16 80.8 °F /  27.1 °C 65.2 °F /  18.4 °C 29.78in /  1008.4hPa SE 15.0mph /  24.1km/h 15.0mph /  24.1km/h 59% 0.00in /  0mm
12:21 80.7 °F /  27.1 °C 64.1 °F /  17.8 °C 29.78in /  1008.4hPa SE 15.0mph /  24.1km/h 16.0mph /  25.7km/h 57% 0.00in /  0mm
12:26 80.9 °F /  27.2 °C 65.2 °F /  18.4 °C 29.78in /  1008.4hPa South 10.0mph /  16.1km/h 12.0mph /  19.3km/h 59% 0.00in /  0mm
12:31 81.2 °F /  27.3 °C 66.5 °F /  19.2 °C 29.78in /  1008.4hPa South 9.0mph /  14.5km/h 12.0mph /  19.3km/h 61% 0.00in /  0mm
12:36 81.2 °F /  27.3 °C 64.0 °F /  17.8 °C 29.77in /  1008hPa South 7.0mph /  11.3km/h 18.0mph /  29km/h 56% 0.00in /  0mm
12:41 81.5 °F /  27.5 °C 64.8 °F /  18.2 °C 29.77in /  1008hPa SSE 11.0mph /  17.7km/h 14.0mph /  22.5km/h 57% 0.00in /  0mm
12:46 81.5 °F /  27.5 °C 64.3 °F /  17.9 °C 29.77in /  1008hPa SE 10.0mph /  16.1km/h 13.0mph /  20.9km/h 56% 0.00in /  0mm
12:51 81.7 °F /  27.6 °C 64.5 °F /  18.1 °C 29.77in /  1008hPa South 7.0mph /  11.3km/h 11.0mph /  17.7km/h 56% 0.00in /  0mm
12:56 81.8 °F /  27.7 °C 64.6 °F /  18.1 °C 29.77in /  1008hPa WSW 6.0mph /  9.7km/h 12.0mph /  19.3km/h 56% 0.00in /  0mm
13:01 81.7 °F /  27.6 °C 64.5 °F /  18.1 °C 29.76in /  1007.7hPa SE 14.0mph /  22.5km/h 15.0mph /  24.1km/h 56% 0.00in /  0mm
13:06 81.8 °F /  27.7 °C 65.1 °F /  18.4 °C 29.76in /  1007.7hPa SSE 10.0mph /  16.1km/h 10.0mph /  16.1km/h 57% 0.00in /  0mm
13:11 81.9 °F /  27.7 °C 65.2 °F /  18.4 °C 29.76in /  1007.7hPa SSE 15.0mph /  24.1km/h 15.0mph /  24.1km/h 57% 0.00in /  0mm
13:16 82.1 °F /  27.8 °C 65.4 °F /  18.6 °C 29.75in /  1007.3hPa South 4.0mph /  6.4km/h 11.0mph /  17.7km/h 57% 0.00in /  0mm
13:21 82.7 °F /  28.2 °C 65.9 °F /  18.8 °C 29.75in /  1007.3hPa South 10.0mph /  16.1km/h 13.0mph /  20.9km/h 57% 0.00in /  0mm
13:26 82.9 °F /  28.3 °C 65.6 °F /  18.7 °C 29.76in /  1007.7hPa SSE 12.0mph /  19.3km/h 14.0mph /  22.5km/h 56% 0.00in /  0mm
13:31 82.8 °F /  28.2 °C 67.0 °F /  19.4 °C 29.75in /  1007.3hPa South 8.0mph /  12.9km/h 10.0mph /  16.1km/h 59% 0.00in /  0mm
13:36 82.7 °F /  28.2 °C 65.4 °F /  18.6 °C 29.75in /  1007.3hPa SW 6.0mph /  9.7km/h 11.0mph /  17.7km/h 56% 0.00in /  0mm
13:41 83.0 °F /  28.3 °C 64.1 °F /  17.8 °C 29.75in /  1007.3hPa SSE 8.0mph /  12.9km/h 12.0mph /  19.3km/h 53% 0.00in /  0mm
13:46 83.0 °F /  28.3 °C 63.6 °F /  17.6 °C 29.75in /  1007.3hPa SE 11.0mph /  17.7km/h 12.0mph /  19.3km/h 52% 0.00in /  0mm
13:51 82.8 °F /  28.2 °C 63.9 °F /  17.7 °C 29.75in /  1007.3hPa SW 9.0mph /  14.5km/h 10.0mph /  16.1km/h 53% 0.00in /  0mm
13:56 83.3 °F /  28.5 °C 65.5 °F /  18.6 °C 29.74in /  1007hPa South 8.0mph /  12.9km/h 10.0mph /  16.1km/h 55% 0.00in /  0mm
14:01 83.3 °F /  28.5 °C 64.9 °F /  18.3 °C 29.75in /  1007.3hPa SSW 8.0mph /  12.9km/h 9.0mph /  14.5km/h 54% 0.00in /  0mm
14:06 83.7 °F /  28.7 °C 65.3 °F /  18.5 °C 29.74in /  1007hPa SW 11.0mph /  17.7km/h 11.0mph /  17.7km/h 54% 0.00in /  0mm
14:11 83.6 °F /  28.7 °C 66.3 °F /  19.1 °C 29.74in /  1007hPa SSW 3.0mph /  4.8km/h 8.0mph /  12.9km/h 56% 0.00in /  0mm
14:16 83.7 °F /  28.7 °C 66.9 °F /  19.4 °C 29.74in /  1007hPa SSE 4.0mph /  6.4km/h 10.0mph /  16.1km/h 57% 0.00in /  0mm
14:21 84.0 °F /  28.9 °C 66.1 °F /  18.9 °C 29.74in /  1007hPa SW 13.0mph /  20.9km/h 13.0mph /  20.9km/h 55% 0.00in /  0mm
14:26 83.8 °F /  28.8 °C 64.9 °F /  18.3 °C 29.74in /  1007hPa WSW 8.0mph /  12.9km/h 8.0mph /  12.9km/h 53% 0.00in /  0mm
14:31 83.9 °F /  28.8 °C 67.1 °F /  19.5 °C 29.73in /  1006.7hPa SW 4.0mph /  6.4km/h 6.0mph /  9.7km/h 57% 0.00in /  0mm
14:36 84.1 °F /  28.9 °C 65.1 °F /  18.4 °C 29.73in /  1006.7hPa SE 8.0mph /  12.9km/h 12.0mph /  19.3km/h 53% 0.00in /  0mm
14:42 84.3 °F /  29.1 °C 65.3 °F /  18.5 °C 29.73in /  1006.7hPa SW 6.0mph /  9.7km/h 9.0mph /  14.5km/h 53% 0.00in /  0mm
14:47 84.3 °F /  29.1 °C 67.4 °F /  19.7 °C 29.73in /  1006.7hPa South 4.0mph /  6.4km/h 9.0mph /  14.5km/h 57% 0.00in /  0mm
14:52 84.7 °F /  29.3 °C 66.2 °F /  19 °C 29.73in /  1006.7hPa SSW 5.0mph /  8km/h 10.0mph /  16.1km/h 54% 0.00in /  0mm
14:57 84.7 °F /  29.3 °C 66.2 °F /  19 °C 29.72in /  1006.3hPa SSE 12.0mph /  19.3km/h 13.0mph /  20.9km/h 54% 0.00in /  0mm
15:02 84.3 °F /  29.1 °C 64.8 °F /  18.2 °C 29.72in /  1006.3hPa SSE 11.0mph /  17.7km/h 12.0mph /  19.3km/h 52% 0.00in /  0mm
15:07 84.5 °F /  29.2 °C 66.1 °F /  18.9 °C 29.72in /  1006.3hPa South 8.0mph /  12.9km/h 14.0mph /  22.5km/h 54% 0.00in /  0mm
15:12 84.7 °F /  29.3 °C 66.2 °F /  19 °C 29.71in /  1006hPa South 4.0mph /  6.4km/h 12.0mph /  19.3km/h 54% 0.00in /  0mm
15:17 84.9 °F /  29.4 °C 66.4 °F /  19.1 °C 29.71in /  1006hPa SSE 10.0mph /  16.1km/h 13.0mph /  20.9km/h 54% 0.00in /  0mm
15:22 84.8 °F /  29.3 °C 64.7 °F /  18.2 °C 29.71in /  1006hPa SSW 6.0mph /  9.7km/h 10.0mph /  16.1km/h 51% 0.00in /  0mm
15:27 84.9 °F /  29.4 °C 64.8 °F /  18.2 °C 29.70in /  1005.6hPa SSW 7.0mph /  11.3km/h 15.0mph /  24.1km/h 51% 0.00in /  0mm
15:32 84.9 °F /  29.4 °C 64.2 °F /  17.9 °C 29.70in /  1005.6hPa South 5.0mph /  8km/h 12.0mph /  19.3km/h 50% 0.00in /  0mm
15:37 85.2 °F /  29.6 °C 65.6 °F /  18.7 °C 29.70in /  1005.6hPa South 8.0mph /  12.9km/h 18.0mph /  29km/h 52% 0.00in /  0mm
15:42 85.3 °F /  29.6 °C 66.2 °F /  19 °C 29.69in /  1005.3hPa SSW 8.0mph /  12.9km/h 14.0mph /  22.5km/h 53% 0.00in /  0mm
15:44 85.3 °F /  29.6 °C 66.2 °F /  19 °C 29.69in /  1005.3hPa SSW 8.0mph /  12.9km/h 14.0mph /  22.5km/h 53% 0.00in /  0mm
15:49 85.6 °F /  29.8 °C 67.1 °F /  19.5 °C 29.68in /  1005hPa SSW 6.0mph /  9.7km/h 9.0mph /  14.5km/h 54% 0.00in /  0mm
15:54 85.8 °F /  29.9 °C 66.2 °F /  19 °C 29.68in /  1005hPa SE 6.0mph /  9.7km/h 13.0mph /  20.9km/h 52% 0.00in /  0mm
15:59 85.5 °F /  29.7 °C 65.3 °F /  18.5 °C 29.67in /  1004.6hPa SSE 9.0mph /  14.5km/h 13.0mph /  20.9km/h 51% 0.00in /  0mm
16:04 85.5 °F /  29.7 °C 65.9 °F /  18.8 °C 29.67in /  1004.6hPa SE 8.0mph /  12.9km/h 12.0mph /  19.3km/h 52% 0.00in /  0mm
16:09 85.2 °F /  29.6 °C 66.2 °F /  19 °C 29.66in /  1004.3hPa SSE 13.0mph /  20.9km/h 13.0mph /  20.9km/h 53% 0.00in /  0mm
16:14 85.1 °F /  29.5 °C 66.1 °F /  18.9 °C 29.65in /  1003.9hPa SSE 8.0mph /  12.9km/h 11.0mph /  17.7km/h 53% 0.00in /  0mm
16:19 85.0 °F /  29.4 °C 66.5 °F /  19.2 °C 29.65in /  1003.9hPa South 7.0mph /  11.3km/h 10.0mph /  16.1km/h 54% 0.00in /  0mm
16:22 84.9 °F /  29.4 °C 65.9 °F /  18.8 °C 29.65in /  1003.9hPa SE 6.0mph /  9.7km/h 12.0mph /  19.3km/h 53% 0.00in /  0mm
16:27 84.9 °F /  29.4 °C 65.9 °F /  18.8 °C 29.65in /  1003.9hPa SSW 6.0mph /  9.7km/h 10.0mph /  16.1km/h 53% 0.00in /  0mm
16:29 84.8 °F /  29.3 °C 66.3 °F /  19.1 °C 29.65in /  1003.9hPa SW 11.0mph /  17.7km/h 11.0mph /  17.7km/h 54% 0.00in /  0mm
16:34 85.2 °F /  29.6 °C 66.2 °F /  19 °C 29.65in /  1003.9hPa SSW 5.0mph /  8km/h 8.0mph /  12.9km/h 53% 0.00in /  0mm
16:39 85.0 °F /  29.4 °C 65.4 °F /  18.6 °C 29.65in /  1003.9hPa SW 3.0mph /  4.8km/h 9.0mph /  14.5km/h 52% 0.00in /  0mm
16:44 84.7 °F /  29.3 °C 65.7 °F /  18.7 °C 29.66in /  1004.3hPa SSE 4.0mph /  6.4km/h 11.0mph /  17.7km/h 53% 0.00in /  0mm
16:49 84.3 °F /  29.1 °C 65.9 °F /  18.8 °C 29.66in /  1004.3hPa SSW 7.0mph /  11.3km/h 10.0mph /  16.1km/h 54% 0.00in /  0mm
16:54 84.1 °F /  28.9 °C 66.2 °F /  19 °C 29.67in /  1004.6hPa WSW 9.0mph /  14.5km/h 10.0mph /  16.1km/h 55% 0.00in /  0mm
16:59 84.3 °F /  29.1 °C 66.9 °F /  19.4 °C 29.67in /  1004.6hPa SW 9.0mph /  14.5km/h 12.0mph /  19.3km/h 56% 0.00in /  0mm
17:04 84.6 °F /  29.2 °C 66.7 °F /  19.3 °C 29.67in /  1004.6hPa WSW 10.0mph /  16.1km/h 11.0mph /  17.7km/h 55% 0.00in /  0mm
17:09 84.8 °F /  29.3 °C 66.3 °F /  19.1 °C 29.67in /  1004.6hPa WSW 9.0mph /  14.5km/h 13.0mph /  20.9km/h 54% 0.00in /  0mm
17:14 85.1 °F /  29.5 °C 65.5 °F /  18.6 °C 29.66in /  1004.3hPa SW 13.0mph /  20.9km/h 13.0mph /  20.9km/h 52% 0.00in /  0mm
17:19 85.4 °F /  29.7 °C 66.3 °F /  19.1 °C 29.66in /  1004.3hPa SE 8.0mph /  12.9km/h 11.0mph /  17.7km/h 53% 0.00in /  0mm
17:24 85.4 °F /  29.7 °C 66.3 °F /  19.1 °C 29.66in /  1004.3hPa SW 10.0mph /  16.1km/h 11.0mph /  17.7km/h 53% 0.00in /  0mm
17:29 85.3 °F /  29.6 °C 66.2 °F /  19 °C 29.65in /  1003.9hPa South 10.0mph /  16.1km/h 10.0mph /  16.1km/h 53% 0.00in /  0mm
17:34 85.0 °F /  29.4 °C 65.4 °F /  18.6 °C 29.66in /  1004.3hPa SSW 5.0mph /  8km/h 12.0mph /  19.3km/h 52% 0.00in /  0mm
17:39 84.8 °F /  29.3 °C 66.8 °F /  19.3 °C 29.65in /  1003.9hPa SE 4.0mph /  6.4km/h 8.0mph /  12.9km/h 55% 0.00in /  0mm
17:44 84.4 °F /  29.1 °C 66.5 °F /  19.2 °C 29.65in /  1003.9hPa South 8.0mph /  12.9km/h 13.0mph /  20.9km/h 55% 0.00in /  0mm
17:50 83.9 °F /  28.8 °C 66.5 °F /  19.2 °C 29.65in /  1003.9hPa South 11.0mph /  17.7km/h 13.0mph /  20.9km/h 56% 0.00in /  0mm
17:55 83.6 °F /  28.7 °C 66.3 °F /  19.1 °C 29.65in /  1003.9hPa South 8.0mph /  12.9km/h 12.0mph /  19.3km/h 56% 0.00in /  0mm
18:00 83.3 °F /  28.5 °C 66.0 °F /  18.9 °C 29.65in /  1003.9hPa SSE 6.0mph /  9.7km/h 9.0mph /  14.5km/h 56% 0.00in /  0mm
18:05 83.0 °F /  28.3 °C 65.7 °F /  18.7 °C 29.65in /  1003.9hPa South 7.0mph /  11.3km/h 10.0mph /  16.1km/h 56% 0.00in /  0mm
18:10 82.7 °F /  28.2 °C 66.4 °F /  19.1 °C 29.66in /  1004.3hPa SSE 8.0mph /  12.9km/h 9.0mph /  14.5km/h 58% 0.00in /  0mm
18:15 82.5 °F /  28.1 °C 66.2 °F /  19 °C 29.66in /  1004.3hPa South 9.0mph /  14.5km/h 10.0mph /  16.1km/h 58% 0.00in /  0mm
18:20 82.3 °F /  27.9 °C 66.1 °F /  18.9 °C 29.65in /  1003.9hPa SSW 8.0mph /  12.9km/h 12.0mph /  19.3km/h 58% 0.00in /  0mm
18:25 82.1 °F /  27.8 °C 66.4 °F /  19.1 °C 29.65in /  1003.9hPa SSW 6.0mph /  9.7km/h 8.0mph /  12.9km/h 59% 0.00in /  0mm
18:30 81.9 °F /  27.7 °C 66.7 °F /  19.3 °C 29.65in /  1003.9hPa SW 6.0mph /  9.7km/h 10.0mph /  16.1km/h 60% 0.00in /  0mm
18:35 81.7 °F /  27.6 °C 66.9 °F /  19.4 °C 29.66in /  1004.3hPa SSW 6.0mph /  9.7km/h 8.0mph /  12.9km/h 61% 0.00in /  0mm
18:40 81.6 °F /  27.6 °C 67.3 °F /  19.6 °C 29.66in /  1004.3hPa SSW 1.0mph /  1.6km/h 7.0mph /  11.3km/h 62% 0.00in /  0mm
18:45 81.5 °F /  27.5 °C 67.7 °F /  19.8 °C 29.66in /  1004.3hPa SW 5.0mph /  8km/h 8.0mph /  12.9km/h 63% 0.00in /  0mm
18:50 81.2 °F /  27.3 °C 67.4 °F /  19.7 °C 29.66in /  1004.3hPa SSE 7.0mph /  11.3km/h 17.0mph /  27.4km/h 63% 0.00in /  0mm
18:55 80.7 °F /  27.1 °C 66.0 °F /  18.9 °C 29.66in /  1004.3hPa SSE 10.0mph /  16.1km/h 18.0mph /  29km/h 61% 0.00in /  0mm
19:00 80.3 °F /  26.8 °C 66.1 °F /  18.9 °C 29.67in /  1004.6hPa SSE 5.0mph /  8km/h 14.0mph /  22.5km/h 62% 0.00in /  0mm
19:05 79.9 °F /  26.6 °C 65.7 °F /  18.7 °C 29.65in /  1003.9hPa SW 5.0mph /  8km/h 12.0mph /  19.3km/h 62% 0.00in /  0mm
19:10 79.6 °F /  26.4 °C 65.9 °F /  18.8 °C 29.66in /  1004.3hPa SSW 5.0mph /  8km/h 12.0mph /  19.3km/h 63% 0.00in /  0mm
19:15 79.2 °F /  26.2 °C 66.4 °F /  19.1 °C 29.67in /  1004.6hPa SSW 11.0mph /  17.7km/h 14.0mph /  22.5km/h 65% 0.00in /  0mm
19:20 78.4 °F /  25.8 °C 67.0 °F /  19.4 °C 29.67in /  1004.6hPa SW 9.0mph /  14.5km/h 13.0mph /  20.9km/h 68% 0.00in /  0mm
19:25 77.6 °F /  25.3 °C 67.5 °F /  19.7 °C 29.67in /  1004.6hPa South 4.0mph /  6.4km/h 12.0mph /  19.3km/h 71% 0.00in /  0mm
19:30 77.3 °F /  25.2 °C 67.2 °F /  19.6 °C 29.67in /  1004.6hPa SSE 7.0mph /  11.3km/h 10.0mph /  16.1km/h 71% 0.00in /  0mm
19:35 77.1 °F /  25.1 °C 67.0 °F /  19.4 °C 29.67in /  1004.6hPa SSW 7.0mph /  11.3km/h 8.0mph /  12.9km/h 71% 0.00in /  0mm
19:40 77.0 °F /  25 °C 67.3 °F /  19.6 °C 29.67in /  1004.6hPa SSE 3.0mph /  4.8km/h 7.0mph /  11.3km/h 72% 0.00in /  0mm
19:45 76.8 °F /  24.9 °C 67.1 °F /  19.5 °C 29.67in /  1004.6hPa South 5.0mph /  8km/h 7.0mph /  11.3km/h 72% 0.00in /  0mm
19:50 76.5 °F /  24.7 °C 67.2 °F /  19.6 °C 29.68in /  1005hPa SW 8.0mph /  12.9km/h 10.0mph /  16.1km/h 73% 0.00in /  0mm
19:55 76.2 °F /  24.6 °C 66.9 °F /  19.4 °C 29.68in /  1005hPa SSW 7.0mph /  11.3km/h 10.0mph /  16.1km/h 73% 0.00in /  0mm
20:00 76.1 °F /  24.5 °C 66.0 °F /  18.9 °C 29.69in /  1005.3hPa SSW 6.0mph /  9.7km/h 16.0mph /  25.7km/h 71% 0.00in /  0mm
20:05 76.1 °F /  24.5 °C 65.6 °F /  18.7 °C 29.70in /  1005.6hPa WSW 12.0mph /  19.3km/h 13.0mph /  20.9km/h 70% 0.00in /  0mm
20:10 74.7 °F /  23.7 °C 63.0 °F /  17.2 °C 29.71in /  1006hPa WSW 10.0mph /  16.1km/h 20.0mph /  32.2km/h 67% 0.00in /  0mm
20:15 73.2 °F /  22.9 °C 62.4 °F /  16.9 °C 29.71in /  1006hPa SW 11.0mph /  17.7km/h 17.0mph /  27.4km/h 69% 0.00in /  0mm
20:20 72.1 °F /  22.3 °C 62.2 °F /  16.8 °C 29.71in /  1006hPa West 6.0mph /  9.7km/h 20.0mph /  32.2km/h 71% 0.00in /  0mm
20:25 71.0 °F /  21.7 °C 61.9 °F /  16.6 °C 29.71in /  1006hPa WSW 9.0mph /  14.5km/h 16.0mph /  25.7km/h 73% 0.00in /  0mm
20:30 70.3 °F /  21.3 °C 61.6 °F /  16.4 °C 29.72in /  1006.3hPa WSW 8.0mph /  12.9km/h 11.0mph /  17.7km/h 74% 0.00in /  0mm
20:35 69.9 °F /  21.1 °C 61.6 °F /  16.4 °C 29.72in /  1006.3hPa West 7.0mph /  11.3km/h 11.0mph /  17.7km/h 75% 0.00in /  0mm
20:40 69.7 °F /  20.9 °C 61.4 °F /  16.3 °C 29.72in /  1006.3hPa West 3.0mph /  4.8km/h 6.0mph /  9.7km/h 75% 0.00in /  0mm
20:45 69.5 °F /  20.8 °C 61.2 °F /  16.2 °C 29.72in /  1006.3hPa WSW 5.0mph /  8km/h 9.0mph /  14.5km/h 75% 0.00in /  0mm
20:50 69.4 °F /  20.8 °C 61.5 °F /  16.4 °C 29.73in /  1006.7hPa SW 4.0mph /  6.4km/h 7.0mph /  11.3km/h 76% 0.00in /  0mm
20:55 69.4 °F /  20.8 °C 61.5 °F /  16.4 °C 29.73in /  1006.7hPa SSW 6.0mph /  9.7km/h 8.0mph /  12.9km/h 76% 0.00in /  0mm
21:00 69.3 °F /  20.7 °C 61.4 °F /  16.3 °C 29.73in /  1006.7hPa South 2.0mph /  3.2km/h 5.0mph /  8km/h 76% 0.00in /  0mm
21:05 69.2 °F /  20.7 °C 61.3 °F /  16.3 °C 29.73in /  1006.7hPa SW 8.0mph /  12.9km/h 12.0mph /  19.3km/h 76% 0.00in /  0mm
21:10 69.0 °F /  20.6 °C 61.5 °F /  16.4 °C 29.72in /  1006.3hPa SW 5.0mph /  8km/h 7.0mph /  11.3km/h 77% 0.00in /  0mm
21:15 68.8 °F /  20.4 °C 61.7 °F /  16.5 °C 29.72in /  1006.3hPa SW 8.0mph /  12.9km/h 9.0mph /  14.5km/h 78% 0.00in /  0mm
21:20 68.8 °F /  20.4 °C 61.3 °F /  16.3 °C 29.72in /  1006.3hPa SW 6.0mph /  9.7km/h 11.0mph /  17.7km/h 77% 0.00in /  0mm
21:25 68.9 °F /  20.5 °C 61.8 °F /  16.6 °C 29.73in /  1006.7hPa SSW 4.0mph /  6.4km/h 7.0mph /  11.3km/h 78% 0.00in /  0mm
21:30 68.7 °F /  20.4 °C 61.9 °F /  16.6 °C 29.73in /  1006.7hPa SW 4.0mph /  6.4km/h 5.0mph /  8km/h 79% 0.00in /  0mm
21:35 68.4 °F /  20.2 °C 62.0 °F /  16.7 °C 29.73in /  1006.7hPa SW 2.0mph /  3.2km/h 3.0mph /  4.8km/h 80% 0.00in /  0mm
21:40 68.1 °F /  20.1 °C 62.1 °F /  16.7 °C 29.72in /  1006.3hPa SW 2.0mph /  3.2km/h 3.0mph /  4.8km/h 81% 0.00in /  0mm
21:45 67.8 °F /  19.9 °C 61.8 °F /  16.6 °C 29.71in /  1006hPa SW 3.0mph /  4.8km/h 5.0mph /  8km/h 81% 0.00in /  0mm
21:50 67.6 °F /  19.8 °C 61.9 °F /  16.6 °C 29.71in /  1006hPa SSW 2.0mph /  3.2km/h 4.0mph /  6.4km/h 82% 0.00in /  0mm
21:56 67.4 °F /  19.7 °C 62.1 °F /  16.7 °C 29.71in /  1006hPa SE 1.0mph /  1.6km/h 2.0mph /  3.2km/h 83% 0.00in /  0mm
22:01 67.2 °F /  19.6 °C 61.9 °F /  16.6 °C 29.71in /  1006hPa SSE 2.0mph /  3.2km/h 2.0mph /  3.2km/h 83% 0.00in /  0mm
22:06 67.0 °F /  19.4 °C 62.3 °F /  16.8 °C 29.71in /  1006hPa SE 2.0mph /  3.2km/h 2.0mph /  3.2km/h 85% 0.00in /  0mm
22:11 66.7 °F /  19.3 °C 62.4 °F /  16.9 °C 29.71in /  1006hPa ESE 2.0mph /  3.2km/h 2.0mph /  3.2km/h 86% 0.00in /  0mm
22:16 66.6 °F /  19.2 °C 62.6 °F /  17 °C 29.71in /  1006hPa ESE 1.0mph /  1.6km/h 2.0mph /  3.2km/h 87% 0.00in /  0mm
22:21 66.4 °F /  19.1 °C 62.4 °F /  16.9 °C 29.72in /  1006.3hPa South 1.0mph /  1.6km/h 2.0mph /  3.2km/h 87% 0.00in /  0mm
22:26 66.3 °F /  19.1 °C 62.3 °F /  16.8 °C 29.71in /  1006hPa SE 1.0mph /  1.6km/h 3.0mph /  4.8km/h 87% 0.00in /  0mm
22:31 66.3 °F /  19.1 °C 62.3 °F /  16.8 °C 29.71in /  1006hPa Calm   2.0mph /  3.2km/h 87% 0.00in /  0mm
22:36 66.2 °F /  19 °C 62.2 °F /  16.8 °C 29.72in /  1006.3hPa SSE 2.0mph /  3.2km/h 4.0mph /  6.4km/h 87% 0.00in /  0mm
22:41 66.2 °F /  19 °C 62.5 °F /  16.9 °C 29.72in /  1006.3hPa SSE 4.0mph /  6.4km/h 7.0mph /  11.3km/h 88% 0.00in /  0mm
22:46 66.1 °F /  18.9 °C 62.5 °F /  16.9 °C 29.71in /  1006hPa SE 2.0mph /  3.2km/h 5.0mph /  8km/h 88% 0.00in /  0mm
22:51 66.0 °F /  18.9 °C 62.7 °F /  17.1 °C 29.71in /  1006hPa SE 3.0mph /  4.8km/h 6.0mph /  9.7km/h 89% 0.00in /  0mm
22:56 65.9 °F /  18.8 °C 62.6 °F /  17 °C 29.71in /  1006hPa ESE 4.0mph /  6.4km/h 5.0mph /  8km/h 89% 0.00in /  0mm
23:01 65.8 °F /  18.8 °C 62.5 °F /  16.9 °C 29.71in /  1006hPa South 2.0mph /  3.2km/h 3.0mph /  4.8km/h 89% 0.00in /  0mm
23:06 65.8 °F /  18.8 °C 62.5 °F /  16.9 °C 29.72in /  1006.3hPa West 2.0mph /  3.2km/h 2.0mph /  3.2km/h 89% 0.00in /  0mm
23:11 65.6 °F /  18.7 °C 62.6 °F /  17 °C 29.72in /  1006.3hPa WSW 2.0mph /  3.2km/h 2.0mph /  3.2km/h 90% 0.00in /  0mm
23:16 65.6 °F /  18.7 °C 62.3 °F /  16.8 °C 29.72in /  1006.3hPa SSW 1.0mph /  1.6km/h 5.0mph /  8km/h 89% 0.00in /  0mm
23:21 65.5 °F /  18.6 °C 62.2 °F /  16.8 °C 29.73in /  1006.7hPa SSE 2.0mph /  3.2km/h 3.0mph /  4.8km/h 89% 0.00in /  0mm
23:26 65.4 °F /  18.6 °C 62.1 °F /  16.7 °C 29.72in /  1006.3hPa SE 5.0mph /  8km/h 5.0mph /  8km/h 89% 0.00in /  0mm
23:31 65.3 °F /  18.5 °C 62.3 °F /  16.8 °C 29.72in /  1006.3hPa SE 4.0mph /  6.4km/h 6.0mph /  9.7km/h 90% 0.00in /  0mm
23:36 65.5 °F /  18.6 °C 62.5 °F /  16.9 °C 29.71in /  1006hPa SE 4.0mph /  6.4km/h 7.0mph /  11.3km/h 90% 0.00in /  0mm
23:41 65.5 °F /  18.6 °C 62.5 °F /  16.9 °C 29.71in /  1006hPa SSE 3.0mph /  4.8km/h 4.0mph /  6.4km/h 90% 0.00in /  0mm
23:46 65.3 °F /  18.5 °C 62.6 °F /  17 °C 29.71in /  1006hPa South 3.0mph /  4.8km/h 5.0mph /  8km/h 91% 0.00in /  0mm
23:51 65.3 °F /  18.5 °C 62.6 °F /  17 °C 29.70in /  1005.6hPa SSE 6.0mph /  9.7km/h 7.0mph /  11.3km/h 91% 0.00in /  0mm
23:56 65.4 °F /  18.6 °C 62.7 °F /  17.1 °C 29.70in /  1005.6hPa SE 3.0mph /  4.8km/h 8.0mph /  12.9km/h 91% 0.00in /  0mm
Compliments of Weather Underground